createdAt,value
2019-05-01T00:00:27.095Z,58.60
2019-05-01T00:02:59.918Z,58.80
2019-05-01T00:05:32.147Z,58.90
2019-05-01T00:08:02.001Z,59.20
2019-05-01T00:10:31.694Z,59.30
2019-05-01T00:13:01.497Z,59.40
2019-05-01T00:15:33.051Z,59.60
2019-05-01T00:18:02.741Z,59.90
2019-05-01T00:20:32.368Z,60.00
2019-05-01T00:23:02.028Z,60.10
2019-05-01T00:25:32.023Z,60.50
2019-05-01T00:28:01.598Z,61.00
2019-05-01T00:30:32.213Z,61.20
2019-05-01T00:33:02.134Z,61.50
2019-05-01T00:35:32.113Z,61.50
2019-05-01T00:38:02.001Z,61.80
2019-05-01T00:40:31.715Z,62.30
2019-05-01T00:43:01.432Z,62.40
2019-05-01T00:45:30.991Z,62.70
2019-05-01T00:48:00.534Z,63.00
2019-05-01T00:50:30.143Z,63.20
2019-05-01T00:52:59.687Z,63.40
2019-05-01T00:55:39.876Z,63.60
2019-05-01T00:58:27.935Z,63.40
2019-05-01T01:01:15.371Z,63.60
2019-05-01T01:03:45.095Z,63.70
2019-05-01T01:06:14.941Z,64.50
2019-05-01T01:08:44.671Z,63.70
2019-05-01T01:11:14.261Z,63.80
2019-05-01T01:13:43.937Z,64.30
2019-05-01T01:16:13.433Z,64.50
2019-05-01T01:18:43.033Z,64.70
2019-05-01T01:21:12.606Z,64.80
2019-05-01T01:23:42.219Z,64.50
2019-05-01T01:26:11.923Z,64.80
2019-05-01T01:28:41.466Z,65.10
2019-05-01T01:31:11.152Z,65.20
2019-05-01T01:33:40.850Z,65.40
2019-05-01T01:36:10.585Z,65.60
2019-05-01T01:38:40.205Z,65.70
2019-05-01T01:41:09.643Z,66.10
2019-05-01T01:43:59.255Z,66.50
2019-05-01T01:46:30.305Z,66.80
2019-05-01T01:49:00.108Z,67.60
2019-05-01T01:51:29.575Z,68.00
2019-05-01T01:54:01.356Z,68.20
2019-05-01T01:56:30.950Z,68.60
2019-05-01T01:59:00.649Z,68.90
2019-05-01T02:01:34.607Z,69.40
2019-05-01T02:04:17.791Z,69.90
2019-05-01T02:06:48.120Z,70.20
2019-05-01T02:09:18.640Z,70.70
2019-05-01T02:11:48.370Z,71.20
2019-05-01T02:14:17.868Z,71.50
2019-05-01T02:16:47.222Z,72.00
2019-05-01T02:19:17.223Z,72.20
2019-05-01T02:21:47.999Z,72.50
2019-05-01T02:24:17.743Z,73.30
2019-05-01T02:26:54.742Z,73.20
2019-05-01T02:29:31.407Z,73.50
2019-05-01T02:32:00.760Z,73.80
2019-05-01T02:34:30.321Z,74.00
2019-05-01T02:37:00.043Z,74.10
2019-05-01T02:39:29.734Z,74.50
2019-05-01T02:42:00.084Z,74.70
2019-05-01T02:44:35.825Z,74.70
2019-05-01T02:47:07.071Z,74.80
2019-05-01T02:49:53.647Z,75.00
2019-05-01T02:52:25.079Z,75.00
2019-05-01T02:54:54.831Z,75.00
2019-05-01T02:57:24.572Z,75.30
2019-05-01T02:59:54.344Z,75.40
2019-05-01T03:02:25.026Z,75.60
2019-05-01T03:04:54.731Z,75.90
2019-05-01T03:07:24.543Z,75.70
2019-05-01T03:09:54.001Z,75.90
2019-05-01T03:12:23.587Z,75.70
2019-05-01T03:14:53.094Z,75.90
2019-05-01T03:17:39.387Z,75.90
2019-05-01T03:20:25.920Z,75.90
2019-05-01T03:23:15.602Z,75.90
2019-05-01T03:25:45.076Z,76.10
2019-05-01T03:28:14.619Z,76.70
2019-05-01T03:30:44.534Z,76.90
2019-05-01T03:33:14.282Z,77.50
2019-05-01T03:35:43.831Z,77.70
2019-05-01T03:38:13.521Z,77.60
2019-05-01T03:40:43.029Z,77.80
2019-05-01T03:43:13.137Z,78.10
2019-05-01T03:45:43.289Z,78.40
2019-05-01T03:48:13.017Z,78.70
2019-05-01T03:50:46.162Z,78.70
2019-05-01T03:53:13.906Z,78.70
2019-05-01T03:55:43.490Z,78.50
2019-05-01T03:58:12.984Z,78.60
2019-05-01T04:00:48.267Z,78.70
2019-05-01T04:03:19.411Z,78.70
2019-05-01T04:05:49.172Z,78.70
2019-05-01T04:08:18.890Z,78.50
2019-05-01T04:10:49.042Z,78.20
2019-05-01T04:13:18.543Z,78.00
2019-05-01T04:15:48.240Z,78.00
2019-05-01T04:18:17.884Z,78.10
2019-05-01T04:20:47.351Z,77.90
2019-05-01T04:23:16.866Z,77.80
2019-05-01T04:25:47.099Z,77.80
2019-05-01T04:28:33.749Z,77.60
2019-05-01T04:31:05.480Z,76.80
2019-05-01T04:33:36.689Z,76.40
2019-05-01T04:36:17.167Z,76.00
2019-05-01T04:38:46.982Z,75.40
2019-05-01T04:41:16.517Z,74.80
2019-05-01T04:43:46.088Z,74.50
2019-05-01T04:46:15.862Z,76.20
2019-05-01T04:48:45.239Z,74.60
2019-05-01T04:51:15.102Z,74.60
2019-05-01T04:53:44.759Z,74.30
2019-05-01T04:56:14.848Z,74.30
2019-05-01T04:58:45.204Z,74.50
2019-05-01T05:01:15.321Z,74.50
2019-05-01T05:03:44.912Z,74.30
2019-05-01T05:06:15.123Z,74.70
2019-05-01T05:08:44.735Z,74.90
2019-05-01T05:11:18.910Z,75.20
2019-05-01T05:14:06.068Z,75.90
2019-05-01T05:16:55.532Z,76.40
2019-05-01T05:19:25.078Z,76.50
2019-05-01T05:21:54.513Z,76.10
2019-05-01T05:24:24.187Z,76.20
2019-05-01T05:26:53.835Z,76.70
2019-05-01T05:29:23.338Z,76.70
2019-05-01T05:31:52.858Z,76.80
2019-05-01T05:34:22.906Z,77.40
2019-05-01T05:36:54.322Z,77.20
2019-05-01T05:39:29.547Z,75.90
2019-05-01T05:41:59.067Z,75.40
2019-05-01T05:44:28.552Z,73.90
2019-05-01T05:46:58.130Z,73.10
2019-05-01T05:49:27.705Z,73.10
2019-05-01T05:52:17.468Z,71.40
2019-05-01T05:54:53.147Z,71.00
2019-05-01T05:57:24.584Z,70.10
2019-05-01T05:59:56.355Z,70.10
2019-05-01T06:02:30.882Z,70.20
2019-05-01T06:05:19.198Z,70.00
2019-05-01T06:08:06.673Z,70.50
2019-05-01T06:10:40.212Z,70.30
2019-05-01T06:13:23.791Z,69.50
2019-05-01T06:16:12.364Z,69.10
2019-05-01T06:18:46.917Z,68.10
2019-05-01T06:21:18.389Z,67.60
2019-05-01T06:23:52.713Z,66.70
2019-05-01T06:26:37.602Z,66.10
2019-05-01T06:29:03.525Z,65.40
2019-05-01T06:31:33.309Z,65.10
2019-05-01T06:34:02.905Z,63.80
2019-05-01T06:36:32.768Z,62.90
2019-05-01T06:39:06.936Z,62.80
2019-05-01T06:41:42.241Z,61.10
2019-05-01T06:44:12.836Z,59.10
2019-05-01T06:46:44.182Z,58.10
2019-05-01T06:49:32.227Z,56.80
2019-05-01T06:52:03.421Z,55.90
2019-05-01T06:54:33.068Z,54.10
2019-05-01T06:57:02.635Z,52.00
2019-05-01T06:59:33.402Z,50.50
2019-05-01T07:02:03.434Z,48.60
2019-05-01T07:04:38.130Z,47.30
2019-05-01T07:07:09.857Z,45.40
2019-05-01T07:09:38.130Z,42.80
2019-05-01T07:12:09.178Z,41.80
2019-05-01T07:14:38.820Z,40.90
2019-05-01T07:17:09.061Z,39.40
2019-05-01T07:19:50.026Z,40.00
2019-05-01T07:22:19.975Z,39.70
2019-05-01T07:24:49.558Z,38.00
2019-05-01T07:27:23.929Z,35.90
2019-05-01T07:29:51.828Z,35.30
2019-05-01T07:32:22.445Z,35.00
2019-05-01T07:34:52.054Z,35.40
2019-05-01T07:37:25.995Z,35.50
2019-05-01T07:39:52.594Z,35.60
2019-05-01T07:42:26.829Z,35.90
2019-05-01T07:45:14.834Z,35.40
2019-05-01T07:47:46.130Z,34.40
2019-05-01T07:50:16.928Z,35.20
2019-05-01T07:52:47.769Z,35.10
2019-05-01T07:55:20.091Z,34.30
2019-05-01T07:57:49.841Z,32.80
2019-05-01T08:00:42.656Z,31.50
2019-05-01T08:03:12.762Z,30.60
2019-05-01T08:05:45.457Z,29.20
2019-05-01T08:08:13.797Z,29.00
2019-05-01T08:10:43.699Z,28.70
2019-05-01T08:13:13.199Z,28.00
2019-05-01T08:15:42.923Z,28.60
2019-05-01T08:18:14.226Z,28.90
2019-05-01T08:20:54.673Z,28.40
2019-05-01T08:23:24.417Z,28.20
2019-05-01T08:25:54.155Z,27.60
2019-05-01T08:28:31.932Z,28.10
2019-05-01T08:31:23.045Z,29.50
2019-05-01T08:33:54.948Z,30.10
2019-05-01T08:36:24.675Z,30.90
2019-05-01T08:38:54.341Z,30.50
2019-05-01T08:41:27.098Z,31.30
2019-05-01T08:43:55.962Z,30.40
2019-05-01T08:46:38.913Z,33.10
2019-05-01T08:49:16.443Z,35.10
2019-05-01T08:51:45.871Z,32.40
2019-05-01T08:54:15.435Z,28.40
2019-05-01T08:56:44.818Z,23.20
2019-05-01T08:59:14.386Z,22.20
2019-05-01T09:01:45.719Z,21.50
2019-05-01T09:04:15.013Z,22.00
2019-05-01T09:06:45.202Z,23.60
2019-05-01T09:09:14.896Z,22.40
2019-05-01T09:11:44.335Z,21.10
2019-05-01T09:14:13.840Z,22.70
2019-05-01T09:16:43.365Z,22.70
2019-05-01T09:19:12.825Z,20.50
2019-05-01T09:21:42.596Z,20.10
2019-05-01T09:24:12.052Z,19.30
2019-05-01T09:26:45.253Z,19.60
2019-05-01T09:29:17.884Z,19.00
2019-05-01T09:31:49.458Z,18.50
2019-05-01T09:34:21.084Z,20.80
2019-05-01T09:36:50.726Z,20.30
2019-05-01T09:39:21.298Z,21.90
2019-05-01T09:41:50.926Z,22.60
2019-05-01T09:44:20.509Z,22.40
2019-05-01T09:46:50.483Z,21.50
2019-05-01T09:49:21.189Z,20.60
2019-05-01T09:51:55.338Z,21.80
2019-05-01T09:54:26.450Z,21.40
2019-05-01T09:56:56.036Z,22.10
2019-05-01T09:59:25.695Z,22.10
2019-05-01T10:01:55.833Z,20.60
2019-05-01T10:04:30.130Z,19.30
2019-05-01T10:06:58.523Z,20.00
2019-05-01T10:09:30.504Z,19.20
2019-05-01T10:12:00.428Z,20.50
2019-05-01T10:15:15.098Z,22.50
2019-05-01T10:17:47.960Z,24.00
2019-05-01T10:20:17.818Z,22.70
2019-05-01T10:22:47.637Z,20.80
2019-05-01T10:25:18.613Z,19.60
2019-05-01T10:27:59.400Z,19.10
2019-05-01T10:30:39.799Z,19.50
2019-05-01T10:33:20.654Z,20.60
2019-05-01T10:36:03.556Z,21.90
2019-05-01T10:38:33.217Z,22.00
2019-05-01T10:41:04.336Z,23.20
2019-05-01T10:43:34.590Z,22.10
2019-05-01T10:46:04.381Z,21.90
2019-05-01T10:48:34.059Z,22.70
2019-05-01T10:51:03.834Z,22.60
2019-05-01T10:53:33.506Z,23.90
2019-05-01T10:56:03.276Z,22.50
2019-05-01T10:58:32.929Z,21.90
2019-05-01T11:01:04.088Z,23.10
2019-05-01T11:03:34.088Z,23.90
2019-05-01T11:06:03.787Z,22.70
2019-05-01T11:08:33.275Z,23.60
2019-05-01T11:11:02.893Z,24.20
2019-05-01T11:13:32.345Z,24.00
2019-05-01T11:16:02.092Z,23.50
2019-05-01T11:18:31.661Z,24.10
2019-05-01T11:21:01.257Z,24.00
2019-05-01T11:23:30.802Z,24.10
2019-05-01T11:26:00.410Z,25.10
2019-05-01T11:28:29.827Z,25.00
2019-05-01T11:30:59.350Z,24.60
2019-05-01T11:33:31.155Z,24.00
2019-05-01T11:36:11.520Z,24.10
2019-05-01T11:38:59.172Z,24.40
2019-05-01T11:41:33.320Z,24.90
2019-05-01T11:44:03.291Z,25.40
2019-05-01T11:46:32.864Z,25.50
2019-05-01T11:49:02.394Z,25.80
2019-05-01T11:51:31.790Z,27.40
2019-05-01T11:54:02.302Z,28.40
2019-05-01T11:56:31.936Z,30.40
2019-05-01T11:59:01.472Z,32.10
2019-05-01T12:01:31.011Z,31.70
2019-05-01T12:04:00.619Z,30.70
2019-05-01T12:06:30.237Z,30.40
2019-05-01T12:08:59.768Z,28.50
2019-05-01T12:11:30.992Z,29.20
2019-05-01T12:14:00.887Z,28.20
2019-05-01T12:16:49.025Z,28.50
2019-05-01T12:19:19.146Z,29.50
2019-05-01T12:21:48.984Z,32.70
2019-05-01T12:24:18.764Z,33.20
2019-05-01T12:26:48.840Z,33.80
2019-05-01T12:29:18.689Z,33.60
2019-05-01T12:31:48.215Z,34.70
2019-05-01T12:34:18.235Z,34.10
2019-05-01T12:36:49.644Z,35.10
2019-05-01T12:39:19.870Z,33.80
2019-05-01T12:41:51.249Z,33.40
2019-05-01T12:44:23.570Z,33.90
2019-05-01T12:47:15.592Z,35.30
2019-05-01T12:49:46.669Z,37.40
2019-05-01T12:52:18.086Z,38.80
2019-05-01T12:54:51.982Z,38.50
2019-05-01T12:57:21.351Z,37.40
2019-05-01T12:59:51.164Z,35.60
2019-05-01T13:02:20.979Z,35.70
2019-05-01T13:04:50.757Z,39.00
2019-05-01T13:07:20.604Z,40.30
2019-05-01T13:09:50.131Z,42.70
2019-05-01T13:12:19.767Z,42.90
2019-05-01T13:15:09.506Z,43.70
2019-05-01T13:17:53.931Z,43.40
2019-05-01T13:20:34.289Z,41.80
2019-05-01T13:23:04.433Z,42.30
2019-05-01T13:25:34.199Z,44.30
2019-05-01T13:28:17.873Z,45.90
2019-05-01T13:30:55.295Z,46.10
2019-05-01T13:33:25.453Z,46.60
2019-05-01T13:35:56.503Z,47.60
2019-05-01T13:38:26.044Z,46.20
2019-05-01T13:40:55.684Z,46.20
2019-05-01T13:43:25.214Z,45.70
2019-05-01T13:45:54.828Z,45.30
2019-05-01T13:48:24.865Z,45.60
2019-05-01T13:50:54.651Z,47.20
2019-05-01T13:53:24.806Z,50.80
2019-05-01T13:55:54.427Z,53.00
2019-05-01T13:58:24.464Z,54.10
2019-05-01T14:00:54.513Z,54.50
2019-05-01T14:03:24.173Z,55.20
2019-05-01T14:05:53.769Z,53.40
2019-05-01T14:08:23.567Z,53.20
2019-05-01T14:10:53.251Z,53.20
2019-05-01T14:13:23.133Z,53.40
2019-05-01T14:15:53.018Z,53.30
2019-05-01T14:18:22.482Z,52.90
2019-05-01T14:20:54.075Z,52.90
2019-05-01T14:23:25.427Z,53.10
2019-05-01T14:26:05.187Z,53.60
2019-05-01T14:28:36.040Z,53.50
2019-05-01T14:31:06.411Z,53.20
2019-05-01T14:33:36.386Z,53.40
2019-05-01T14:36:06.089Z,54.00
2019-05-01T14:38:36.264Z,54.40
2019-05-01T14:41:06.002Z,54.70
2019-05-01T14:43:36.086Z,54.90
2019-05-01T14:46:06.434Z,54.60
2019-05-01T14:48:38.250Z,54.90
2019-05-01T14:51:08.224Z,54.90
2019-05-01T14:53:38.375Z,55.90
2019-05-01T14:56:08.105Z,58.10
2019-05-01T14:58:37.716Z,59.50
2019-05-01T15:01:07.536Z,61.40
2019-05-01T15:03:37.238Z,61.80
2019-05-01T15:06:06.838Z,62.20
2019-05-01T15:08:36.532Z,61.00
2019-05-01T15:11:06.212Z,61.40
2019-05-01T15:13:37.172Z,61.40
2019-05-01T15:16:23.543Z,60.90
2019-05-01T15:19:06.974Z,61.30
2019-05-01T15:21:36.654Z,61.60
2019-05-01T15:24:06.188Z,61.90
2019-05-01T15:26:35.952Z,63.00
2019-05-01T15:29:05.351Z,63.60
2019-05-01T15:31:34.999Z,63.40
2019-05-01T15:34:05.102Z,63.50
2019-05-01T15:36:34.812Z,64.10
2019-05-01T15:39:07.546Z,64.60
2019-05-01T15:41:54.932Z,63.20
2019-05-01T15:44:26.300Z,64.60
2019-05-01T15:46:55.871Z,65.00
2019-05-01T15:49:25.654Z,64.80
2019-05-01T15:51:55.238Z,64.80
2019-05-01T15:54:24.889Z,65.00
2019-05-01T15:56:55.047Z,64.80
2019-05-01T15:59:24.691Z,64.50
2019-05-01T16:01:54.247Z,64.70
2019-05-01T16:04:23.839Z,64.80
2019-05-01T16:06:53.341Z,65.00
2019-05-01T16:09:23.008Z,65.40
2019-05-01T16:12:06.426Z,66.20
2019-05-01T16:14:36.417Z,66.30
2019-05-01T16:17:06.341Z,66.00
2019-05-01T16:19:36.264Z,66.30
2019-05-01T16:22:05.836Z,66.20
2019-05-01T16:24:35.523Z,65.80
2019-05-01T16:27:05.566Z,66.00
2019-05-01T16:29:35.201Z,66.10
2019-05-01T16:32:04.803Z,65.80
2019-05-01T16:34:34.466Z,66.20
2019-05-01T16:37:04.234Z,65.90
2019-05-01T16:39:51.892Z,66.00
2019-05-01T16:42:22.734Z,67.10
2019-05-01T16:44:52.269Z,66.70
2019-05-01T16:47:22.200Z,66.80
2019-05-01T16:49:51.793Z,67.30
2019-05-01T16:52:23.182Z,66.90
2019-05-01T16:54:59.172Z,67.00
2019-05-01T16:57:25.030Z,67.00
2019-05-01T16:59:55.295Z,67.00
2019-05-01T17:02:42.987Z,67.10
2019-05-01T17:05:21.070Z,67.70
2019-05-01T17:07:52.368Z,67.90
2019-05-01T17:10:26.340Z,67.90
2019-05-01T17:12:56.789Z,68.00
2019-05-01T17:15:27.958Z,68.30
2019-05-01T17:17:58.044Z,68.20
2019-05-01T17:20:28.023Z,67.30
2019-05-01T17:22:58.277Z,68.10
2019-05-01T17:25:29.530Z,67.40
2019-05-01T17:28:02.912Z,67.60
2019-05-01T17:30:47.021Z,66.90
2019-05-01T17:33:21.743Z,66.40
2019-05-01T17:35:47.589Z,66.50
2019-05-01T17:38:17.051Z,66.80
2019-05-01T17:40:47.430Z,67.00
2019-05-01T17:43:18.097Z,67.10
2019-05-01T17:45:47.593Z,67.00
2019-05-01T17:48:17.126Z,66.70
2019-05-01T17:50:46.683Z,66.90
2019-05-01T17:53:16.055Z,66.80
2019-05-01T17:55:45.533Z,67.10
2019-05-01T17:58:15.009Z,67.00
2019-05-01T18:00:58.476Z,67.30
2019-05-01T18:03:46.034Z,66.80
2019-05-01T18:06:32.778Z,66.30
2019-05-01T18:09:08.048Z,66.70
2019-05-01T18:11:35.706Z,66.80
2019-05-01T18:14:06.312Z,66.70
2019-05-01T18:16:36.349Z,66.80
2019-05-01T18:19:09.871Z,66.10
2019-05-01T18:21:46.605Z,66.30
2019-05-01T18:24:31.708Z,66.40
2019-05-01T18:27:02.914Z,66.70
2019-05-01T18:29:35.565Z,67.20
2019-05-01T18:32:08.219Z,67.50
2019-05-01T18:34:39.394Z,68.50
2019-05-01T18:37:19.783Z,67.80
2019-05-01T18:39:50.923Z,68.00
2019-05-01T18:42:20.928Z,67.70
2019-05-01T18:44:50.348Z,67.50
2019-05-01T18:47:21.003Z,67.70
2019-05-01T18:49:50.711Z,67.60
2019-05-01T18:52:20.326Z,67.50
2019-05-01T18:54:49.939Z,67.50
2019-05-01T18:57:20.052Z,68.20
2019-05-01T18:59:49.924Z,68.90
2019-05-01T19:02:20.586Z,69.50
2019-05-01T19:04:50.867Z,70.00
2019-05-01T19:07:20.756Z,70.30
2019-05-01T19:09:50.393Z,70.60
2019-05-01T19:12:22.099Z,70.90
2019-05-01T19:14:51.708Z,70.80
2019-05-01T19:17:21.140Z,70.80
2019-05-01T19:19:50.652Z,71.10
2019-05-01T19:22:20.233Z,70.50
2019-05-01T19:24:50.005Z,70.50
2019-05-01T19:27:21.231Z,70.30
2019-05-01T19:29:51.115Z,70.90
2019-05-01T19:32:22.314Z,69.70
2019-05-01T19:34:52.172Z,69.60
2019-05-01T19:37:23.818Z,69.10
2019-05-01T19:39:54.966Z,68.50
2019-05-01T19:42:24.931Z,68.30
2019-05-01T19:44:56.426Z,68.20
2019-05-01T19:47:27.421Z,67.70
2019-05-01T19:50:06.826Z,67.50
2019-05-01T19:52:32.490Z,67.20
2019-05-01T19:55:01.311Z,67.20
2019-05-01T19:57:31.184Z,67.00
2019-05-01T20:00:00.839Z,66.80
2019-05-01T20:02:32.215Z,67.20
2019-05-01T20:05:02.350Z,67.20
2019-05-01T20:07:31.664Z,66.90
2019-05-01T20:10:01.203Z,66.90
2019-05-01T20:12:31.290Z,67.10
2019-05-01T20:15:00.728Z,67.10
2019-05-01T20:17:30.736Z,67.20
2019-05-01T20:20:00.759Z,67.70
2019-05-01T20:22:30.372Z,67.90
2019-05-01T20:25:00.235Z,68.00
2019-05-01T20:27:29.767Z,68.30
2019-05-01T20:29:59.386Z,68.50
2019-05-01T20:32:29.207Z,68.50
2019-05-01T20:34:59.430Z,68.90
2019-05-01T20:37:29.339Z,69.10
2019-05-01T20:40:10.350Z,69.10
2019-05-01T20:42:30.108Z,69.40
2019-05-01T20:45:05.414Z,69.60
2019-05-01T20:47:35.153Z,69.60
2019-05-01T20:50:04.625Z,69.60
2019-05-01T20:52:34.095Z,69.60
2019-05-01T20:55:04.407Z,69.90
2019-05-01T20:57:35.528Z,70.20
2019-05-01T21:00:11.391Z,70.40
2019-05-01T21:02:43.103Z,70.70
2019-05-01T21:05:25.702Z,70.80
2019-05-01T21:08:08.887Z,71.20
2019-05-01T21:10:50.309Z,71.40
2019-05-01T21:13:12.099Z,71.60
2019-05-01T21:15:41.968Z,72.00
2019-05-01T21:18:11.785Z,72.20
2019-05-01T21:20:41.496Z,73.10
2019-05-01T21:23:11.782Z,72.70
2019-05-01T21:25:41.404Z,73.00
2019-05-01T21:28:10.895Z,73.20
2019-05-01T21:30:43.883Z,73.40
2019-05-01T21:33:13.898Z,73.70
2019-05-01T21:35:44.500Z,74.00
2019-05-01T21:38:14.577Z,74.30
2019-05-01T21:40:44.701Z,74.50
2019-05-01T21:43:14.537Z,74.60
2019-05-01T21:45:44.121Z,74.60
2019-05-01T21:48:13.821Z,74.80
2019-05-01T21:50:43.971Z,74.80
2019-05-01T21:53:14.716Z,74.80
2019-05-01T21:55:44.281Z,74.80
2019-05-01T21:58:15.351Z,74.90
2019-05-01T22:00:45.289Z,75.00
2019-05-01T22:03:16.718Z,75.10
2019-05-01T22:05:46.483Z,75.10
2019-05-01T22:08:16.106Z,75.20
2019-05-01T22:10:52.018Z,75.20
2019-05-01T22:13:20.409Z,75.50
2019-05-01T22:15:56.468Z,75.70
2019-05-01T22:18:33.185Z,75.80
2019-05-01T22:21:04.527Z,76.10
2019-05-01T22:23:52.438Z,76.30
2019-05-01T22:26:22.348Z,76.70
2019-05-01T22:28:54.839Z,77.00
2019-05-01T22:31:42.459Z,77.30
2019-05-01T22:34:30.366Z,77.30
2019-05-01T22:36:59.995Z,77.60
2019-05-01T22:39:32.730Z,78.10
2019-05-01T22:42:02.257Z,81.00
2019-05-01T22:44:31.829Z,78.30
2019-05-01T22:47:01.640Z,78.50
2019-05-01T22:49:31.178Z,78.40
2019-05-01T22:52:01.996Z,78.30
2019-05-01T22:54:31.626Z,78.60
2019-05-01T22:57:01.168Z,78.80
2019-05-01T22:59:30.844Z,79.20
2019-05-01T23:02:08.236Z,79.20
2019-05-01T23:04:38.109Z,79.10
2019-05-01T23:07:11.796Z,78.90
2019-05-01T23:09:39.511Z,78.90
2019-05-01T23:12:09.154Z,78.80
2019-05-01T23:14:38.908Z,79.40
2019-05-01T23:17:11.109Z,78.70
2019-05-01T23:19:40.599Z,78.80
2019-05-01T23:22:10.119Z,78.60
2019-05-01T23:24:39.921Z,78.50
2019-05-01T23:27:09.734Z,78.00
2019-05-01T23:29:39.228Z,77.90
2019-05-01T23:32:09.032Z,77.40
2019-05-01T23:34:38.456Z,77.10
2019-05-01T23:37:08.154Z,75.90
2019-05-01T23:39:40.217Z,75.90
2019-05-01T23:42:09.101Z,76.00
2019-05-01T23:44:42.924Z,75.80
2019-05-01T23:47:09.798Z,75.60
2019-05-01T23:49:39.550Z,76.00
2019-05-01T23:52:10.213Z,75.90
2019-05-01T23:54:39.687Z,76.00
2019-05-01T23:57:09.528Z,76.20
2019-05-01T23:59:39.624Z,76.10
